Yaounde, Cameroon
Current Conditions -  °F | °C
As of 6:00 AM on Tuesday 23 Dec 2014 (Local Time) from FKYS Reporting Station
Haze Haze  
Wind Chill: 19°   Ceiling: 600
Heat Index: 19°   Visibility: 1.8mi
Dew Point: 18°   Wind: 0mph
Humidity: 94%   Direction: NA
Pressure: 30"   Gusts: NA
Location:  3.87°N, 11.52°E
Report Text: FKYS 230500Z 00000KT 3000 BR SCT003 BKN006 19/18 Q1016 BECMG1500 BR
Loading
Personal Weather Stations






























Interactive Weather Map New forecast layout! Learn more

10-Day Weather Forecast

Advertisements
Track Severe Weather on mobile